Flight Track Log - Related Links

Times and Time Zones

All times are in EDT time to prevent confusion due to time zone crossing. See the SKW5162 flight status page for this flight to view local times or setup timezone preferences in your user account.


Time Position Orientation Groundspeed Altitude Reporting Facility
EDT Latitude Longitude Course Direction KTS MPH feet Rate Location/Type
Thu 01:15:16 PM 29.9772 -95.3056 96° East 171 197 500  Level Houston Center
Thu 01:16:48 PM 29.9683 -95.2100 96° East 231 266 3,400 1,795 Climbing Houston Center
Thu 01:17:13 PM 29.9642 -95.1781 99° East 223 257 4,000 2,138 Climbing Houston Center
Thu 01:18:15 PM 29.9519 -95.0853 99° East 280 322 6,500 2,352 Climbing Houston Center
Thu 01:19:18 PM 29.9408 -94.9867 97° East 300 345 8,900 2,208 Climbing Houston Center
Thu 01:20:20 PM 29.9286 -94.8844 98° East 315 362 11,100 1,839 Climbing Houston Center
Thu 01:21:22 PM 29.9156 -94.7675 97° East 352 405 12,700 1,839 Climbing Houston Center
Thu 01:22:24 PM 29.9008 -94.6461 98° East 376 433 14,900 1,984 Climbing Houston Center
Thu 01:23:26 PM 29.8864 -94.5208 98° East 388 447 16,800 1,887 Climbing Houston Center
Thu 01:24:28 PM 29.8678 -94.3650 98° East 404 465 18,800 1,935 Climbing Houston Center
Thu 01:25:30 PM 29.8589 -94.2314 94° East 414 476 20,800 1,968 Climbing Houston Center
Thu 01:26:33 PM 29.8558 -94.1139 92° East 411 473 22,900 1,839 Climbing Houston Center
Thu 01:27:34 PM 29.8628 -93.9564 87° East 413 475 24,600 1,645 Climbing Houston Center
Thu 01:28:37 PM 29.8783 -93.8208 82° East 426 490 26,300 1,392 Climbing Houston Center
Thu 01:29:39 PM 29.8919 -93.6850 83° East 431 496 27,500 1,258 Climbing Houston Center
Thu 01:30:41 PM 29.9069 -93.5450 83° East 441 507 28,900 1,161 Climbing Houston Center
Thu 01:31:43 PM 29.9208 -93.4031 84° East 450 518 29,900 1,065 Climbing Houston Center
Thu 01:32:45 PM 29.9386 -93.2294 83° East 461 531 31,100 968 Climbing Houston Center
Thu 01:33:47 PM 29.9536 -93.0808 83° East 469 540 31,900 823 Climbing Houston Center
Thu 01:34:49 PM 29.9689 -92.9289 83° East 478 550 32,800 816 Climbing Houston Center
Thu 01:35:52 PM 29.9819 -92.7756 84° East 484 557 33,600 672 Climbing Houston Center
Thu 01:36:54 PM 29.9969 -92.5853 85° East 497 572 34,200 629 Climbing Houston Center
Thu 01:37:56 PM 30.0092 -92.4233 85° East 507 583 34,900 774 Climbing Houston Center
Thu 01:38:58 PM 30.0225 -92.2619 85° East 510 587 35,800 823 Climbing Houston Center
Thu 01:40:00 PM 30.0333 -92.1008 86° East 506 582 36,600 581 Climbing Houston Center
Thu 01:41:02 PM 30.0469 -91.9386 84° East 510 587 37,000 194 Climbing Houston Center
Thu 01:42:04 PM 30.0592 -91.7736 85° East 515 593 37,000  Level Houston Center
Thu 01:43:07 PM 30.0744 -91.5789 85° East 521 600 37,000  Level Houston Center
Thu 01:44:09 PM 30.0858 -91.4167 85° East 512 589 37,000  Level Houston Center
Thu 01:45:11 PM 30.0972 -91.2564 85° East 504 580 37,000  Level Houston Center
Thu 01:46:13 PM 30.1072 -91.0975 86° East 498 573 37,000  Level Houston Center
Thu 01:47:15 PM 30.1206 -90.9344 85° East 508 585 37,000  Level Houston Center
Thu 01:48:17 PM 30.1686 -90.7450 74° East 513 590 37,000  Level Houston Center
Thu 01:49:19 PM 30.2061 -90.5856 75° East 515 593 37,000  Level Houston Center
Thu 01:50:22 PM 30.2456 -90.4264 74° East 515 593 37,000  Level Houston Center
Thu 01:51:24 PM 30.2842 -90.2678 74° East 514 592 37,000  Level Houston Center
Thu 01:52:26 PM 30.3236 -90.1086 74° East 515 593 37,000  Level Houston Center
Thu 01:53:28 PM 30.3606 -89.9486 75° East 514 592 37,000  Level Houston Center
Thu 01:54:30 PM 30.4008 -89.7756 75° East 512 589 37,000  Level Houston Center
Thu 01:55:32 PM 30.4397 -89.6172 74° East 516 594 37,000  Level Houston Center
Thu 01:56:34 PM 30.4731 -89.4236 79° East 508 585 37,000  Level Houston Center
Thu 01:57:37 PM 30.4947 -89.2633 81° East 505 581 37,000  Level Houston Center
Thu 01:58:39 PM 30.5169 -89.1000 81° East 510 587 37,000  Level Houston Center
Thu 01:59:41 PM 30.5364 -88.9394 82° East 508 585 37,000  Level Houston Center
Thu 02:00:43 PM 30.5581 -88.7781 81° East 510 587 37,000  Level Houston Center
Thu 02:01:45 PM 30.5853 -88.5828 81° East 514 592 37,000  Level Houston Center
Thu 02:02:48 PM 30.6072 -88.4214 81° East 512 589 37,000  Level Houston Center
Thu 02:03:49 PM 30.6289 -88.2597 81° East 513 590 37,000  Level Houston Center
Thu 02:04:52 PM 30.6489 -88.0992 82° East 510 587 37,000  Level Houston Center
Thu 02:05:54 PM 30.6708 -87.9389 81° East 509 586 37,000  Level Houston Center
Thu 02:06:39 PM 30.6875 -87.8031 82° East 514 592 37,000  Level Jacksonville Center
Thu 02:07:40 PM 30.7064 -87.6375 82° East 514 592 37,000  Level Jacksonville Center
Thu 02:08:39 PM 30.7289 -87.4792 81° East 508 585 37,000  Level Jacksonville Center
Thu 02:09:40 PM 30.7325 -87.3150 88° East 502 578 37,000  Level Jacksonville Center
Thu 02:10:40 PM 30.7358 -87.1533 89° East 496 571 37,000  Level Jacksonville Center
Thu 02:11:39 PM 30.7419 -86.9697 88° East 496 571 37,000  Level Jacksonville Center
Thu 02:12:39 PM 30.7428 -86.8081 90° East 496 571 37,000 -50 Level Jacksonville Center
Thu 02:13:39 PM 30.7497 -86.6464 87° East 496 571 36,900  Descending Jacksonville Center
Thu 02:14:39 PM 30.7522 -86.4869 89° East 496 571 37,000 50 Climbing Jacksonville Center
Thu 02:15:39 PM 30.7547 -86.3250 89° East 496 571 37,000  Level Jacksonville Center
Thu 02:16:39 PM 30.7589 -86.1633 88° East 496 571 37,000  Level Jacksonville Center
Thu 02:17:39 PM 30.7608 -86.0014 89° East 496 571 37,000  Level Jacksonville Center
Thu 02:18:39 PM 30.7644 -85.8589 88° East 496 571 37,000  Level Jacksonville Center
Thu 02:19:39 PM 30.7658 -85.6994 89° East 491 565 37,000  Level Jacksonville Center
Thu 02:20:40 PM 30.7694 -85.5375 88° East 496 571 37,000  Level Jacksonville Center
Thu 02:21:40 PM 30.7703 -85.3853 90° East 489 563 37,000  Level Jacksonville Center
Thu 02:22:39 PM 30.7714 -85.2233 90° East 489 563 37,000  Level Jacksonville Center
Thu 02:23:39 PM 30.7742 -85.0639 89° East 489 563 37,000  Level Jacksonville Center
Thu 02:24:40 PM 30.7747 -84.9042 90° East 494 568 37,000 -350 Level Jacksonville Center
Thu 02:25:39 PM 30.7394 -84.7511 105° East 494 568 36,300 -857 Descending Jacksonville Center
Thu 02:26:39 PM 30.6914 -84.6006 110° East 488 562 35,300 -992 Descending Jacksonville Center
Thu 02:27:40 PM 30.6331 -84.4378 113° Southeast 488 562 34,300 -1,000 Descending Jacksonville Center
Thu 02:28:39 PM 30.5844 -84.2922 111° Southeast 488 562 33,300 -655 Descending Jacksonville Center
Thu 02:29:39 PM 30.5403 -84.1444 109° East 488 562 33,000 -149 Descending Jacksonville Center
Thu 02:30:40 PM 30.4914 -83.9942 111° Southeast 493 567 33,000  Level Jacksonville Center
Thu 02:31:39 PM 30.4447 -83.8467 110° East 493 567 33,000  Level Jacksonville Center
Thu 02:32:39 PM 30.3956 -83.6994 111° Southeast 493 567 33,000 -347 Level Jacksonville Center
Thu 02:33:40 PM 30.3483 -83.5544 111° Southeast 493 567 32,300 -2,350 Descending Jacksonville Center
Thu 02:34:39 PM 30.2947 -83.4025 112° Southeast 493 567 28,300 -2,650 Descending Jacksonville Center
Thu 02:35:40 PM 30.2492 -83.2581 110° East 493 567 27,000 -650 Descending Jacksonville Center
Thu 02:36:39 PM 30.2017 -83.1136 111° Southeast 482 555 27,000 -202 Level Jacksonville Center
Thu 02:37:39 PM 30.1517 -82.9694 112° Southeast 482 555 26,600 -496 Descending Jacksonville Center
Thu 02:38:40 PM 30.1100 -82.8422 111° Southeast 476 548 26,000 -645 Descending Jacksonville Center
Thu 02:39:40 PM 30.0597 -82.7006 112° Southeast 476 548 25,300 -504 Descending Jacksonville Center
Thu 02:40:39 PM 30.0114 -82.5614 112° Southeast 476 548 25,000 -200 Descending Jacksonville Center
Thu 02:41:40 PM 29.9422 -82.4394 123° Southeast 453 521 24,900 -50 Descending Jacksonville Center
Thu 02:42:40 PM 29.8272 -82.3947 161° South 414 476 24,900 50 Level Jacksonville Center
Thu 02:43:40 PM 29.7100 -82.3569 164° South 419 482 25,000 -800 Climbing Jacksonville Center
Thu 02:44:40 PM 29.6011 -82.3025 157° South 424 488 23,300 -1,850 Descending Jacksonville Center
Thu 02:45:40 PM 29.4925 -82.2483 157° South 429 494 21,300 -2,050 Descending Jacksonville Center
Thu 02:46:40 PM 29.3897 -82.1942 155° Southeast 418 481 19,200 -1,950 Descending Jacksonville Center
Thu 02:47:40 PM 29.2914 -82.1450 156° South 403 464 17,400 -1,850 Descending Jacksonville Center
Thu 02:48:40 PM 29.1953 -82.0958 156° South 391 450 15,500 -1,815 Descending Jacksonville Center
Thu 02:49:39 PM 29.1092 -82.0511 156° South 365 420 13,800 -1,600 Descending Jacksonville Center
Thu 02:50:40 PM 29.0233 -82.0044 155° Southeast 352 405 12,300 -1,289 Descending Jacksonville Center
Thu 02:51:40 PM 28.9375 -81.9603 156° South 340 391 11,200 -655 Descending Jacksonville Center
Thu 02:52:39 PM 28.8683 -81.9111 148° Southeast 317 365 11,000 -796 Descending Jacksonville Center
Thu 02:53:33 PM 28.8333 -81.8167 113° Southeast 288 331 9,700 -1,053 Descending Orlando TRACON
Thu 02:54:33 PM 28.8167 -81.7500 106° East 271 312 9,000 -331 Descending Orlando TRACON
Thu 02:55:40 PM 28.8000 -81.6500 101° East 276 318 9,000 -283 Level Orlando TRACON
Thu 02:56:40 PM 28.7833 -81.5833 106° East 221 254 8,400 -944 Descending Orlando TRACON
Thu 02:57:28 PM 28.7667 -81.5167 106° East 224 258 7,300 -1,266 Descending Orlando TRACON
Thu 02:58:29 PM 28.7167 -81.4667 139° Southeast 223 257 6,100 -942 Descending Orlando TRACON
Thu 02:59:29 PM 28.6833 -81.4167 127° Southeast 225 259 5,400 -1,000 Descending Orlando TRACON
Thu 03:00:29 PM 28.6167 -81.3833 156° South 225 259 4,100 -1,273 Descending Orlando TRACON
Thu 03:01:41 PM 28.5667 -81.3500 150° Southeast 203 234 2,600 -905 Descending Orlando TRACON
Thu 03:02:35 PM 28.5333 -81.3333 156° South 155 178 2,200 -850 Descending Orlando TRACON
Thu 03:03:41 PM 28.4833 -81.3333 180° South 141 162 900 -1,182 Descending Orlando TRACON
Thu 03:05:00 PM 28.4294 -81.3090 180° South  Level Estimated

Login

Don't have an account? Register now (free) for customized features, flight alerts, and more!